Maritime Polaris — 9V2825 — position and weather

sailwx.info

Track history (hours):
 
Tides and Currents Weather Stations Pressure Air Temp Water Temp Dewpoint Dewpoint Depression Visibility Wind Speed Wind Dir Waves Ship Positions

Maritime Polaris

Last reported at 2017-Nov-07 15:48 UTC. Time now 2017-Nov-24 14:51 UTC.
Position N 36°11' E 014°48'.
Warning: this ship's position is 16 days out of date.

Length 183 m; draft 11.1 m.

Type: Tanker. MMSI: 566762000.

Date/timePositionNaut miles runAvg speedWind from/ knotsBaromVisibWave heightAir tempDewpointWater temp
2017-Nov-07 15:48N 36°11' E 014°48'413.2
2017-Nov-07 15:30N 36°12' E 014°43'713.6
2017-Nov-07 15:00N 36°15' E 014°35'713.5
2017-Nov-07 14:30N 36°17' E 014°28'713.3
2017-Nov-07 14:00N 36°20' E 014°20'713.1
2017-Nov-07 13:30N 36°22' E 014°12'713.3
2017-Nov-07 13:00N 36°24' E 014°05'713.4
2017-Nov-07 12:28N 36°27' E 013°57'613.3
2017-Nov-07 11:59N 36°29' E 013°49'  
2017-Nov-04 12:00N 36°00' W 005°17'714.8
2017-Nov-04 11:30N 35°58' W 005°26'  
2017-Nov-01 02:00N 37°21' W 026°55'612.6
2017-Nov-01 01:30N 37°21' W 027°03'712.9
2017-Nov-01 00:58N 37°21' W 027°12'2112.9
2017-Oct-31 23:20N 37°20' W 027°39'413.1
2017-Oct-31 23:00N 37°20' W 027°44'713.0
2017-Oct-31 22:30N 37°19' W 027°52'713.2
2017-Oct-31 22:00N 37°19' W 028°00'1212.9
2017-Oct-31 21:06N 37°19' W 028°15'112.7
2017-Oct-31 21:00N 37°18' W 028°17'613.1
2017-Oct-31 20:30N 37°18' W 028°25'713.3
2017-Oct-31 20:01N 37°18' W 028°33'713.1
2017-Oct-31 19:30N 37°18' W 028°41'713.3
2017-Oct-31 19:00N 37°17' W 028°50'713.4
2017-Oct-31 18:30N 37°17' W 028°58'713.2
2017-Oct-31 18:00N 37°17' W 029°06'612.9
2017-Oct-31 17:30N 37°16' W 029°14'713.2
2017-Oct-31 17:01N 37°16' W 029°23'713.2
2017-Oct-31 16:30N 37°16' W 029°31'1413.2
2017-Oct-31 15:26N 37°16' W 029°49'613.0
2017-Oct-31 15:00N 37°15' W 029°56'  
Track history (hours):
 
Tides and Currents Weather Stations Pressure Air Temp Water Temp Dewpoint Dewpoint Depression Visibility Wind Speed Wind Dir Waves Ship Positions

Maritime Polaris

Last reported at 2017-Nov-07 15:48 UTC. Time now 2017-Nov-24 14:51 UTC.
Position N 36°11' E 014°48'.
Warning: this ship's position is 16 days out of date.

Length 183 m; draft 11.1 m.

Type: Tanker. MMSI: 566762000.

Date/timePositionNaut miles runAvg speedWind from/ knotsBaromVisibWave heightAir tempDewpointWater temp
2017-Nov-07 15:48N 36°11' E 014°48'413.2
2017-Nov-07 15:30N 36°12' E 014°43'713.6
2017-Nov-07 15:00N 36°15' E 014°35'713.5
2017-Nov-07 14:30N 36°17' E 014°28'713.3
2017-Nov-07 14:00N 36°20' E 014°20'713.1
2017-Nov-07 13:30N 36°22' E 014°12'713.3
2017-Nov-07 13:00N 36°24' E 014°05'713.4
2017-Nov-07 12:28N 36°27' E 013°57'613.3
2017-Nov-07 11:59N 36°29' E 013°49'  
2017-Nov-04 12:00N 36°00' W 005°17'714.8
2017-Nov-04 11:30N 35°58' W 005°26'  
2017-Nov-01 02:00N 37°21' W 026°55'612.6
2017-Nov-01 01:30N 37°21' W 027°03'712.9
2017-Nov-01 00:58N 37°21' W 027°12'2112.9
2017-Oct-31 23:20N 37°20' W 027°39'413.1
2017-Oct-31 23:00N 37°20' W 027°44'713.0
2017-Oct-31 22:30N 37°19' W 027°52'713.2
2017-Oct-31 22:00N 37°19' W 028°00'1212.9
2017-Oct-31 21:06N 37°19' W 028°15'112.7
2017-Oct-31 21:00N 37°18' W 028°17'613.1
2017-Oct-31 20:30N 37°18' W 028°25'713.3
2017-Oct-31 20:01N 37°18' W 028°33'713.1
2017-Oct-31 19:30N 37°18' W 028°41'713.3
2017-Oct-31 19:00N 37°17' W 028°50'713.4
2017-Oct-31 18:30N 37°17' W 028°58'713.2
2017-Oct-31 18:00N 37°17' W 029°06'612.9
2017-Oct-31 17:30N 37°16' W 029°14'713.2
2017-Oct-31 17:01N 37°16' W 029°23'713.2
2017-Oct-31 16:30N 37°16' W 029°31'1413.2
2017-Oct-31 15:26N 37°16' W 029°49'613.0
2017-Oct-31 15:00N 37°15' W 029°56'  

Dump ship's entire track history